createdAt,value
2022-08-28T00:00:58.049Z,0.00
2022-08-28T00:05:58.000Z,0.00
2022-08-28T00:10:57.928Z,0.00
2022-08-28T00:15:57.933Z,0.00
2022-08-28T00:20:57.900Z,0.00
2022-08-28T00:25:57.825Z,0.00
2022-08-28T00:30:57.842Z,0.00
2022-08-28T00:35:57.656Z,0.00
2022-08-28T00:40:57.637Z,0.00
2022-08-28T00:45:57.547Z,0.00
2022-08-28T00:51:00.607Z,0.00
2022-08-28T00:55:57.443Z,0.00
2022-08-28T01:00:57.417Z,0.00
2022-08-28T01:05:57.337Z,0.00
2022-08-28T01:10:57.283Z,0.00
2022-08-28T01:15:57.383Z,0.00
2022-08-28T01:20:57.165Z,0.00
2022-08-28T01:25:57.120Z,0.00
2022-08-28T01:30:57.210Z,0.00
2022-08-28T01:35:57.075Z,0.00
2022-08-28T01:40:57.037Z,0.00
2022-08-28T01:45:56.914Z,0.00
2022-08-28T01:50:56.838Z,0.00
2022-08-28T01:55:56.778Z,0.00
2022-08-28T02:00:56.831Z,0.00
2022-08-28T02:05:56.692Z,0.00
2022-08-28T02:10:56.657Z,0.00
2022-08-28T02:15:56.647Z,0.00
2022-08-28T02:20:56.556Z,0.00
2022-08-28T02:25:56.472Z,0.00
2022-08-28T02:30:56.572Z,0.00
2022-08-28T02:35:56.371Z,0.00
2022-08-28T02:40:56.321Z,0.00
2022-08-28T02:45:56.290Z,0.00
2022-08-28T02:50:56.201Z,0.00
2022-08-28T02:55:56.118Z,0.00
2022-08-28T03:00:56.214Z,0.00
2022-08-28T03:05:56.090Z,0.00
2022-08-28T03:10:56.030Z,0.00
2022-08-28T03:15:56.212Z,0.00
2022-08-28T03:20:55.931Z,0.00
2022-08-28T03:25:55.839Z,0.00
2022-08-28T03:30:55.771Z,0.00
2022-08-28T03:35:55.718Z,0.00
2022-08-28T03:40:55.651Z,0.00
2022-08-28T03:45:55.643Z,0.00
2022-08-28T03:50:55.550Z,0.00
2022-08-28T03:55:55.477Z,0.00
2022-08-28T04:00:55.464Z,0.00
2022-08-28T04:05:55.390Z,0.00
2022-08-28T04:10:55.408Z,0.00
2022-08-28T04:15:55.256Z,0.00
2022-08-28T04:20:55.204Z,0.00
2022-08-28T04:25:55.169Z,0.00
2022-08-28T04:30:55.106Z,5.62
2022-08-28T04:35:55.035Z,16.88
2022-08-28T04:40:54.999Z,22.50
2022-08-28T04:45:55.000Z,39.38
2022-08-28T04:50:54.943Z,56.25
2022-08-28T04:55:55.441Z,73.12
2022-08-28T05:00:54.984Z,90.00
2022-08-28T05:05:54.705Z,112.50
2022-08-28T05:10:54.718Z,140.62
2022-08-28T05:15:54.626Z,174.38
2022-08-28T05:20:54.554Z,213.75
2022-08-28T05:25:54.495Z,258.75
2022-08-28T05:30:54.422Z,298.12
2022-08-28T05:35:54.384Z,348.75
2022-08-28T05:40:54.378Z,399.38
2022-08-28T05:45:54.411Z,506.25
2022-08-28T05:50:54.214Z,601.88
2022-08-28T05:55:54.185Z,511.88
2022-08-28T06:00:54.112Z,511.88
2022-08-28T06:06:01.115Z,528.75
2022-08-28T06:10:54.001Z,506.25
2022-08-28T06:15:53.978Z,613.12
2022-08-28T06:20:53.911Z,675.00
2022-08-28T06:25:53.912Z,680.62
2022-08-28T06:31:18.495Z,691.88
2022-08-28T06:35:54.742Z,708.75
2022-08-28T06:40:53.671Z,759.38
2022-08-28T06:45:53.666Z,900.00
2022-08-28T06:50:53.571Z,1001.25
2022-08-28T06:55:53.522Z,1091.25
2022-08-28T07:01:00.941Z,933.75
2022-08-28T07:05:54.453Z,1215.00
2022-08-28T07:10:53.449Z,2086.88
2022-08-28T07:15:53.370Z,2120.62
2022-08-28T07:20:53.255Z,1985.62
2022-08-28T07:25:53.382Z,2385.00
2022-08-28T07:30:53.165Z,2565.00
2022-08-28T07:35:53.086Z,2891.25
2022-08-28T07:40:53.003Z,1243.12
2022-08-28T07:45:53.067Z,680.62
2022-08-28T07:50:52.987Z,860.62
2022-08-28T07:55:52.930Z,933.75
2022-08-28T08:00:52.815Z,720.00
2022-08-28T08:05:52.796Z,3116.25
2022-08-28T08:10:52.707Z,3493.12
2022-08-28T08:15:52.688Z,2733.75
2022-08-28T08:20:52.598Z,1068.75
2022-08-28T08:25:52.672Z,798.75
2022-08-28T08:30:52.701Z,742.50
2022-08-28T08:35:52.558Z,3645.00
2022-08-28T08:40:52.494Z,3549.38
2022-08-28T08:45:52.487Z,2491.88
2022-08-28T08:50:52.362Z,3819.38
2022-08-28T08:55:52.233Z,939.38
2022-08-28T09:00:52.174Z,3616.88
2022-08-28T09:05:52.124Z,3864.38
2022-08-28T09:10:52.137Z,3937.50
2022-08-28T09:15:52.073Z,4477.50
2022-08-28T09:20:53.017Z,1620.00
2022-08-28T09:25:51.938Z,2008.12
2022-08-28T09:30:51.909Z,4370.62
2022-08-28T09:35:51.825Z,3875.62
2022-08-28T09:40:51.761Z,3690.00
2022-08-28T09:45:51.749Z,4415.62
2022-08-28T09:50:51.723Z,4843.12
2022-08-28T09:55:51.665Z,4494.38
2022-08-28T10:00:51.614Z,4410.00
2022-08-28T10:05:51.506Z,4539.38
2022-08-28T10:10:51.510Z,4494.38
2022-08-28T10:15:51.469Z,4455.00
2022-08-28T10:20:51.373Z,4421.25
2022-08-28T10:25:51.314Z,4798.12
2022-08-28T10:30:51.363Z,4753.12
2022-08-28T10:35:51.307Z,4646.25
2022-08-28T10:40:51.338Z,5152.50
2022-08-28T10:45:51.307Z,4871.25
2022-08-28T10:50:51.090Z,4370.62
2022-08-28T10:55:51.041Z,4505.62
2022-08-28T11:00:50.983Z,4342.50
2022-08-28T11:05:53.756Z,3487.50
2022-08-28T11:10:50.914Z,4601.25
2022-08-28T11:15:50.844Z,5220.00
2022-08-28T11:20:50.853Z,4556.25
2022-08-28T11:25:50.796Z,4893.75
2022-08-28T11:30:50.757Z,4916.25
2022-08-28T11:35:50.650Z,4404.38
2022-08-28T11:40:50.601Z,1220.62
2022-08-28T11:45:50.597Z,1046.25
2022-08-28T11:50:51.518Z,4691.25
2022-08-28T11:55:50.454Z,4876.88
2022-08-28T12:00:50.392Z,4618.12
2022-08-28T12:05:50.609Z,5422.50
2022-08-28T12:10:59.226Z,4730.62
2022-08-28T12:15:50.365Z,4809.38
2022-08-28T12:20:50.208Z,4432.50
2022-08-28T12:25:50.163Z,4370.62
2022-08-28T12:30:50.134Z,4398.75
2022-08-28T12:35:50.067Z,4387.50
2022-08-28T12:40:50.084Z,3982.50
2022-08-28T12:45:50.083Z,3504.38
2022-08-28T12:50:49.969Z,3988.12
2022-08-28T12:55:49.900Z,4050.00
2022-08-28T13:00:49.859Z,3886.88
2022-08-28T13:05:49.774Z,3549.38
2022-08-28T13:10:49.709Z,2868.75
2022-08-28T13:15:49.665Z,3020.62
2022-08-28T13:20:49.693Z,2407.50
2022-08-28T13:25:49.617Z,2137.50
2022-08-28T13:30:49.592Z,2120.62
2022-08-28T13:35:49.464Z,2070.00
2022-08-28T13:40:58.352Z,2019.38
2022-08-28T13:45:50.436Z,1929.38
2022-08-28T13:50:49.323Z,1895.62
2022-08-28T13:55:49.262Z,1912.50
2022-08-28T14:00:49.370Z,1895.62
2022-08-28T14:05:49.256Z,1912.50
2022-08-28T14:10:49.137Z,1912.50
2022-08-28T14:15:49.148Z,1276.88
2022-08-28T14:20:49.076Z,1861.88
2022-08-28T14:25:49.009Z,1777.50
2022-08-28T14:30:48.949Z,1721.25
2022-08-28T14:35:48.907Z,1715.62
2022-08-28T14:40:48.844Z,933.75
2022-08-28T14:45:48.827Z,416.25
2022-08-28T14:50:48.806Z,393.75
2022-08-28T14:55:49.691Z,382.50
2022-08-28T15:00:48.757Z,365.62
2022-08-28T15:05:48.647Z,365.62
2022-08-28T15:10:48.668Z,365.62
2022-08-28T15:15:48.471Z,354.38
2022-08-28T15:20:48.422Z,360.00
2022-08-28T15:25:49.519Z,354.38
2022-08-28T15:30:48.305Z,343.12
2022-08-28T15:35:48.271Z,343.12
2022-08-28T15:40:48.325Z,348.75
2022-08-28T15:45:48.312Z,388.12
2022-08-28T15:50:48.132Z,393.75
2022-08-28T15:55:48.146Z,343.12
2022-08-28T16:00:48.083Z,315.00
2022-08-28T16:05:47.937Z,303.75
2022-08-28T16:10:47.889Z,286.88
2022-08-28T16:15:47.898Z,281.25
2022-08-28T16:20:47.949Z,275.62
2022-08-28T16:25:49.830Z,270.00
2022-08-28T16:31:19.080Z,258.75
2022-08-28T16:35:49.516Z,253.12
2022-08-28T16:40:48.742Z,253.12
2022-08-28T16:45:47.675Z,241.88
2022-08-28T16:50:47.624Z,230.62
2022-08-28T16:55:47.560Z,219.38
2022-08-28T17:00:54.720Z,219.38
2022-08-28T17:05:48.363Z,208.12
2022-08-28T17:10:47.280Z,202.50
2022-08-28T17:15:47.221Z,191.25
2022-08-28T17:20:47.134Z,180.00
2022-08-28T17:25:47.142Z,174.38
2022-08-28T17:30:47.172Z,163.12
2022-08-28T17:35:50.404Z,151.88
2022-08-28T17:40:47.902Z,140.62
2022-08-28T17:45:46.878Z,129.38
2022-08-28T17:50:46.815Z,101.25
2022-08-28T17:55:46.744Z,84.38
2022-08-28T18:00:46.706Z,78.75
2022-08-28T18:05:46.646Z,67.50
2022-08-28T18:10:53.622Z,50.62
2022-08-28T18:15:46.655Z,33.75
2022-08-28T18:20:47.635Z,22.50
2022-08-28T18:25:50.469Z,16.88
2022-08-28T18:30:46.502Z,11.25
2022-08-28T18:35:49.430Z,5.62
2022-08-28T18:40:46.384Z,0.00
2022-08-28T18:45:46.359Z,0.00
2022-08-28T18:50:46.706Z,0.00
2022-08-28T18:55:46.310Z,0.00
2022-08-28T19:00:46.169Z,0.00
2022-08-28T19:05:45.982Z,0.00
2022-08-28T19:10:45.946Z,0.00
2022-08-28T19:15:45.916Z,0.00
2022-08-28T19:20:45.817Z,0.00
2022-08-28T19:25:45.764Z,0.00
2022-08-28T19:30:45.815Z,0.00
2022-08-28T19:35:45.664Z,0.00
2022-08-28T19:40:45.764Z,0.00
2022-08-28T19:45:45.705Z,0.00
2022-08-28T19:50:45.759Z,0.00
2022-08-28T19:55:45.520Z,0.00
2022-08-28T20:00:45.447Z,0.00
2022-08-28T20:05:45.337Z,0.00
2022-08-28T20:10:45.271Z,0.00
2022-08-28T20:15:45.359Z,0.00
2022-08-28T20:20:45.362Z,0.00
2022-08-28T20:25:45.335Z,0.00
2022-08-28T20:30:45.104Z,0.00
2022-08-28T20:35:45.037Z,0.00
2022-08-28T20:40:45.045Z,0.00
2022-08-28T20:45:44.964Z,0.00
2022-08-28T20:50:44.845Z,0.00
2022-08-28T20:55:44.845Z,0.00
2022-08-28T21:00:44.723Z,0.00
2022-08-28T21:05:47.683Z,0.00
2022-08-28T21:10:44.666Z,0.00
2022-08-28T21:15:44.561Z,0.00
2022-08-28T21:20:44.523Z,0.00
2022-08-28T21:25:44.464Z,0.00
2022-08-28T21:30:44.426Z,0.00
2022-08-28T21:35:44.375Z,0.00
2022-08-28T21:40:44.383Z,0.00
2022-08-28T21:45:44.294Z,0.00
2022-08-28T21:50:44.270Z,0.00
2022-08-28T21:55:44.133Z,0.00
2022-08-28T22:00:44.080Z,0.00
2022-08-28T22:05:43.990Z,0.00
2022-08-28T22:10:43.971Z,0.00
2022-08-28T22:15:43.922Z,0.00
2022-08-28T22:20:43.850Z,0.00
2022-08-28T22:25:43.812Z,0.00
2022-08-28T22:30:43.760Z,0.00
2022-08-28T22:35:43.702Z,0.00
2022-08-28T22:40:43.665Z,0.00
2022-08-28T22:45:43.729Z,0.00
2022-08-28T22:50:43.520Z,0.00
2022-08-28T22:55:43.649Z,0.00
2022-08-28T23:00:43.418Z,0.00
2022-08-28T23:05:43.580Z,0.00
2022-08-28T23:10:58.360Z,0.00
2022-08-28T23:15:44.366Z,0.00
2022-08-28T23:20:43.240Z,0.00
2022-08-28T23:25:43.163Z,0.00
2022-08-28T23:30:49.777Z,0.00
2022-08-28T23:35:44.060Z,0.00
2022-08-28T23:40:43.074Z,0.00
2022-08-28T23:45:42.983Z,0.00
2022-08-28T23:50:42.890Z,0.00
2022-08-28T23:55:42.824Z,0.00
